Time;durP1;ratioP1;P1;durP2;ratioP2;P2;SDS_P1;SDS_P2;PMS_P1;PMS_P2;Temp;Humidity;BMP_temperature;BMP_pressure;BME280_temperature;BME280_humidity;BME280_pressure;Samples;Min_cycle;Max_cycle;Signal;HPM_P1;HPM_P2
2021/11/14 00:08:23;;;;;;;10.27;6.40;;;22.90;63.70;;;;;;31495909;28;20079;-43
2021/11/14 00:23:25;;;;;;;8.00;5.90;;;22.70;63.60;;;;;;31495745;28;20060;-41
2021/11/14 00:38:28;;;;;;;8.50;5.82;;;22.70;63.60;;;;;;31494802;28;20057;-41
2021/11/14 00:53:31;;;;;;;7.50;5.95;;;22.60;63.60;;;;;;31494316;28;20049;-41
2021/11/14 01:08:33;;;;;;;7.20;5.65;;;22.50;63.60;;;;;;31498106;28;20049;-41
2021/11/14 01:23:35;;;;;;;8.27;6.18;;;22.40;63.70;;;;;;31516748;28;20048;-41
2021/11/14 01:38:37;;;;;;;5.47;4.88;;;22.40;63.80;;;;;;31486138;28;20105;-41
2021/11/14 01:53:40;;;;;;;10.93;4.55;;;22.40;63.20;;;;;;31387187;28;20097;-42
2021/11/14 02:08:44;;;;;;;18.58;13.77;;;22.00;57.70;;;;;;31387836;28;20053;-41
2021/11/14 02:23:46;;;;;;;14.65;11.25;;;22.50;60.50;;;;;;31382987;28;20065;-35
2021/11/14 02:38:49;;;;;;;12.85;10.85;;;22.90;60.50;;;;;;31372991;28;20072;-37
2021/11/14 02:53:51;;;;;;;13.23;10.65;;;23.00;60.80;;;;;;31371858;28;20045;-35
2021/11/14 03:08:53;;;;;;;13.38;10.35;;;23.00;61.10;;;;;;31370223;28;20886;-36
2021/11/14 03:23:56;;;;;;;7.20;6.45;;;23.00;61.10;;;;;;31368553;28;20057;-34
2021/11/14 03:39:00;;;;;;;10.93;8.30;;;22.90;61.30;;;;;;31371581;28;20049;-35
2021/11/14 03:54:03;;;;;;;9.15;8.00;;;22.90;61.40;;;;;;31367618;28;20046;-34
2021/11/14 04:09:05;;;;;;;8.10;6.75;;;22.80;61.60;;;;;;31368394;28;20712;-35
2021/11/14 04:24:07;;;;;;;9.32;7.45;;;22.80;61.70;;;;;;31369067;28;20517;-37
2021/11/14 04:39:09;;;;;;;7.97;6.82;;;22.70;62.30;;;;;;31370236;28;20101;-36
2021/11/14 04:54:11;;;;;;;11.80;7.18;;;22.70;62.40;;;;;;31392209;28;20053;-37
2021/11/14 05:09:13;;;;;;;7.82;6.38;;;22.60;62.40;;;;;;31392592;28;20073;-37
2021/11/14 05:24:15;;;;;;;7.85;5.82;;;22.50;62.40;;;;;;31406355;28;20135;-36
2021/11/14 05:39:17;;;;;;;7.35;6.25;;;22.50;62.70;;;;;;31441761;28;20092;-43
2021/11/14 05:54:20;;;;;;;9.63;5.43;;;22.40;63.00;;;;;;31383045;28;20843;-40
2021/11/14 06:09:23;;;;;;;11.35;5.07;;;22.30;62.80;;;;;;31396686;28;20081;-40
2021/11/14 06:24:25;;;;;;;7.50;4.82;;;22.20;62.90;;;;;;31040404;28;9999975;-40
2021/11/14 06:39:27;;;;;;;10.90;4.50;;;22.20;63.00;;;;;;31381501;28;20073;-41
2021/11/14 06:54:29;;;;;;;7.05;4.85;;;22.10;63.00;;;;;;31379771;28;20049;-40
2021/11/14 07:09:31;;;;;;;10.88;4.78;;;22.10;63.10;;;;;;31377615;28;20100;-42
2021/11/14 07:24:33;;;;;;;8.52;4.13;;;22.10;62.60;;;;;;31477266;28;20071;-40
2021/11/14 07:39:35;;;;;;;18.42;5.28;;;22.20;62.30;;;;;;31498363;28;20068;-42
2021/11/14 07:54:37;;;;;;;11.55;4.38;;;22.30;60.80;;;;;;31495606;28;20078;-41
2021/11/14 08:09:40;;;;;;;11.50;4.40;;;22.50;59.40;;;;;;31489506;28;20071;-41
2021/11/14 08:24:42;;;;;;;9.85;5.05;;;22.70;57.60;;;;;;31493915;28;20045;-44
2021/11/14 08:39:46;;;;;;;10.63;4.93;;;22.70;57.10;;;;;;31494065;28;20056;-42
2021/11/14 08:54:48;;;;;;;6.93;4.55;;;22.60;57.50;;;;;;31493152;28;20044;-42
2021/11/14 09:09:50;;;;;;;16.98;4.68;;;22.50;57.90;;;;;;31492124;28;20048;-44
2021/11/14 09:24:52;;;;;;;13.10;4.82;;;22.50;59.20;;;;;;31491739;28;20068;-48
2021/11/14 09:39:54;;;;;;;13.27;4.97;;;22.50;61.30;;;;;;31477179;28;20052;-44
2021/11/14 09:55:01;;;;;;;16.65;5.93;;;22.50;60.80;;;;;;31386143;28;20128;-43
2021/11/14 10:10:06;;;;;;;15.90;4.57;;;22.50;61.50;;;;;;31385355;28;20064;-42
2021/11/14 10:25:10;;;;;;;10.38;5.40;;;22.90;60.90;;;;;;31382765;28;20068;-40
2021/11/14 10:40:34;;;;;;;20.58;5.97;;;22.90;60.70;;;;;;31372743;28;20136;-41
2021/11/14 10:55:41;;;;;;;14.52;6.10;;;22.90;60.90;;;;;;31372600;28;20053;-47
2021/11/14 11:10:44;;;;;;;21.42;6.95;;;22.80;61.50;;;;;;31377566;28;20065;-43
2021/11/14 11:25:52;;;;;;;18.08;6.68;;;22.70;61.70;;;;;;31376315;28;20071;-41
2021/11/14 11:40:59;;;;;;;15.80;6.85;;;22.60;61.90;;;;;;31374304;28;20077;-45
2021/11/14 11:56:12;;;;;;;15.43;6.45;;;22.50;62.00;;;;;;31373245;28;20046;-46
2021/11/14 12:11:33;;;;;;;12.68;5.80;;;22.50;62.40;;;;;;31371674;28;20080;-43
2021/11/14 12:26:36;;;;;;;13.40;5.90;;;22.50;61.90;;;;;;31370571;28;20065;-43
2021/11/14 12:41:40;;;;;;;10.77;5.55;;;22.90;61.50;;;;;;31369571;28;20054;-43
2021/11/14 12:56:48;;;;;;;9.45;4.57;;;22.90;61.60;;;;;;31368584;28;20053;-46
2021/11/14 13:12:02;;;;;;;10.60;5.30;;;22.90;61.60;;;;;;31384468;28;20079;-45
2021/11/14 13:27:08;;;;;;;11.45;4.93;;;22.80;61.40;;;;;;31389887;28;20048;-41
2021/11/14 13:42:17;;;;;;;8.85;4.38;;;22.70;61.80;;;;;;31387976;28;20057;-41
2021/11/14 13:57:21;;;;;;;10.13;4.38;;;22.60;61.90;;;;;;31387089;28;20096;-41
2021/11/14 14:12:24;;;;;;;9.10;4.65;;;22.50;62.10;;;;;;31385162;28;20095;-43
2021/11/14 14:27:27;;;;;;;7.13;3.85;;;22.50;62.20;;;;;;31381054;28;20065;-41
2021/11/14 14:42:29;;;;;;;7.88;3.97;;;22.50;62.10;;;;;;31381266;28;20073;-43
2021/11/14 14:57:31;;;;;;;5.25;3.30;;;22.80;61.50;;;;;;31379558;28;20045;-43
2021/11/14 15:12:36;;;;;;;10.82;4.25;;;22.90;61.50;;;;;;31376475;28;20052;-45
2021/11/14 15:27:40;;;;;;;11.50;4.55;;;22.90;61.60;;;;;;31375200;28;20048;-42
2021/11/14 15:42:42;;;;;;;10.25;5.15;;;22.80;62.30;;;;;;31375487;28;20097;-43
2021/11/14 15:57:45;;;;;;;10.07;3.90;;;22.80;62.60;;;;;;31373041;28;20073;-46
2021/11/14 16:12:48;;;;;;;10.77;4.03;;;22.80;62.30;;;;;;31371269;28;20097;-46
2021/11/14 16:27:52;;;;;;;11.32;4.13;;;22.70;62.70;;;;;;31372784;28;20068;-36
2021/11/14 16:42:56;;;;;;;11.90;5.30;;;22.60;63.80;;;;;;31382635;28;20472;-38
2021/11/14 16:57:58;;;;;;;20.50;6.47;;;22.60;63.90;;;;;;31392842;28;20049;-39
2021/11/14 17:13:00;;;;;;;17.50;8.75;;;22.60;64.40;;;;;;31036619;28;9999681;-43
2021/11/14 17:28:04;;;;;;;21.23;7.63;;;22.60;65.00;;;;;;31380241;28;20097;-46
2021/11/14 17:43:06;;;;;;;18.10;7.72;;;22.60;64.80;;;;;;31384218;28;20113;-42
2021/11/14 17:58:08;;;;;;;14.57;6.75;;;22.60;65.00;;;;;;31384229;28;20041;-37
2021/11/14 18:13:11;;;;;;;14.52;7.03;;;22.60;64.70;;;;;;31378822;28;20049;-36
2021/11/14 18:28:17;;;;;;;12.85;5.97;;;22.50;64.80;;;;;;31380498;28;20061;-47
2021/11/14 18:43:20;;;;;;;20.88;6.00;;;22.60;64.40;;;;;;31371777;28;20049;-42
2021/11/14 18:58:25;;;;;;;10.68;5.63;;;22.50;64.80;;;;;;31376210;28;20045;-35
2021/11/14 19:13:27;;;;;;;17.92;5.97;;;22.60;65.10;;;;;;31371542;28;20042;-39
2021/11/14 19:28:29;;;;;;;16.30;5.70;;;22.70;64.90;;;;;;31367066;28;20056;-35
2021/11/14 19:43:32;;;;;;;11.40;5.18;;;22.40;65.70;;;;;;31371175;28;20153;-35
2021/11/14 19:58:34;;;;;;;9.57;4.80;;;22.70;64.90;;;;;;31364149;28;20068;-39
2021/11/14 20:13:38;;;;;;;6.93;4.03;;;22.70;65.10;;;;;;31443701;28;20096;-36
2021/11/14 20:28:40;;;;;;;10.15;6.35;;;22.80;64.40;;;;;;31486440;28;20091;-45
2021/11/14 20:43:42;;;;;;;14.82;7.45;;;22.50;62.50;;;;;;31470173;28;20064;-37
2021/11/14 20:58:44;;;;;;;11.88;8.43;;;22.20;58.00;;;;;;31431607;28;20053;-37
2021/11/14 21:13:47;;;;;;;12.63;8.88;;;22.10;56.60;;;;;;31463905;28;20069;-42
2021/11/14 21:28:53;;;;;;;12.48;7.30;;;22.00;55.80;;;;;;31381392;28;20045;-39
2021/11/14 21:43:55;;;;;;;10.57;6.28;;;22.30;58.30;;;;;;31394482;28;20069;-38
2021/11/14 21:58:58;;;;;;;16.23;5.47;;;22.50;58.90;;;;;;31404524;28;20048;-42
2021/11/14 22:14:00;;;;;;;12.68;10.07;;;22.50;61.70;;;;;;31429292;28;20092;-37
2021/11/14 22:29:04;;;;;;;13.90;9.88;;;22.50;60.30;;;;;;31379877;28;20057;-37
2021/11/14 22:44:09;;;;;;;12.45;8.90;;;22.60;60.30;;;;;;31371374;28;20101;-36
2021/11/14 22:59:11;;;;;;;9.82;7.65;;;22.60;60.40;;;;;;31383581;28;20116;-37
2021/11/14 23:14:18;;;;;;;11.98;8.05;;;22.50;61.60;;;;;;31373332;28;20045;-37
2021/11/14 23:29:20;;;;;;;14.50;8.43;;;22.50;61.90;;;;;;31368845;28;20045;-37
2021/11/14 23:44:27;;;;;;;10.25;8.13;;;22.50;62.20;;;;;;31261622;28;20050;-37
2021/11/14 23:59:30;;;;;;;9.52;7.30;;;22.40;62.00;;;;;;31253469;28;20046;-37
